sensor_id;sensor_type;location;lat;lon;timestamp;P1;durP1;ratioP1;P2;durP2;ratioP2
10511;SDS011;5304;48.604;2.096;2022-07-24T00:01:10;8.13;;;7.30;;
10511;SDS011;5304;48.604;2.096;2022-07-24T00:03:55;8.60;;;7.67;;
10511;SDS011;5304;48.604;2.096;2022-07-24T00:06:39;10.90;;;8.47;;
10511;SDS011;5304;48.604;2.096;2022-07-24T00:09:23;9.03;;;8.00;;
10511;SDS011;5304;48.604;2.096;2022-07-24T00:12:08;10.00;;;8.77;;
10511;SDS011;5304;48.604;2.096;2022-07-24T00:14:53;9.93;;;8.40;;
10511;SDS011;5304;48.604;2.096;2022-07-24T00:17:37;10.80;;;8.60;;
10511;SDS011;5304;48.604;2.096;2022-07-24T00:20:22;11.20;;;8.80;;
10511;SDS011;5304;48.604;2.096;2022-07-24T00:23:06;9.97;;;8.53;;
10511;SDS011;5304;48.604;2.096;2022-07-24T00:25:51;14.10;;;9.27;;
10511;SDS011;5304;48.604;2.096;2022-07-24T00:28:36;10.63;;;7.90;;
10511;SDS011;5304;48.604;2.096;2022-07-24T00:31:21;9.73;;;8.50;;
10511;SDS011;5304;48.604;2.096;2022-07-24T00:34:05;10.93;;;8.13;;
10511;SDS011;5304;48.604;2.096;2022-07-24T00:36:49;10.73;;;8.40;;
10511;SDS011;5304;48.604;2.096;2022-07-24T00:39:34;10.43;;;8.27;;
10511;SDS011;5304;48.604;2.096;2022-07-24T00:42:18;13.03;;;8.17;;
10511;SDS011;5304;48.604;2.096;2022-07-24T00:45:03;10.03;;;8.57;;
10511;SDS011;5304;48.604;2.096;2022-07-24T00:47:48;11.90;;;8.93;;
10511;SDS011;5304;48.604;2.096;2022-07-24T00:50:32;11.07;;;8.30;;
10511;SDS011;5304;48.604;2.096;2022-07-24T00:53:17;9.70;;;8.73;;
10511;SDS011;5304;48.604;2.096;2022-07-24T00:56:01;14.67;;;9.00;;
10511;SDS011;5304;48.604;2.096;2022-07-24T00:58:46;9.80;;;8.13;;
10511;SDS011;5304;48.604;2.096;2022-07-24T01:01:32;9.90;;;8.90;;
10511;SDS011;5304;48.604;2.096;2022-07-24T01:04:17;10.17;;;8.77;;
10511;SDS011;5304;48.604;2.096;2022-07-24T01:07:02;9.27;;;8.37;;
10511;SDS011;5304;48.604;2.096;2022-07-24T01:09:47;11.30;;;8.50;;
10511;SDS011;5304;48.604;2.096;2022-07-24T01:12:32;12.47;;;9.23;;
10511;SDS011;5304;48.604;2.096;2022-07-24T01:15:18;12.47;;;9.23;;
10511;SDS011;5304;48.604;2.096;2022-07-24T01:18:03;10.83;;;8.80;;
10511;SDS011;5304;48.604;2.096;2022-07-24T01:20:47;12.23;;;10.00;;
10511;SDS011;5304;48.604;2.096;2022-07-24T01:23:33;11.70;;;9.37;;
10511;SDS011;5304;48.604;2.096;2022-07-24T01:26:18;10.10;;;9.00;;
10511;SDS011;5304;48.604;2.096;2022-07-24T01:29:02;11.63;;;9.33;;
10511;SDS011;5304;48.604;2.096;2022-07-24T01:31:47;10.37;;;8.60;;
10511;SDS011;5304;48.604;2.096;2022-07-24T01:34:31;9.40;;;8.40;;
10511;SDS011;5304;48.604;2.096;2022-07-24T01:37:15;10.80;;;8.80;;
10511;SDS011;5304;48.604;2.096;2022-07-24T01:40:00;11.40;;;8.70;;
10511;SDS011;5304;48.604;2.096;2022-07-24T01:42:44;11.77;;;8.93;;
10511;SDS011;5304;48.604;2.096;2022-07-24T01:45:29;12.23;;;9.20;;
10511;SDS011;5304;48.604;2.096;2022-07-24T01:48:13;11.30;;;9.50;;
10511;SDS011;5304;48.604;2.096;2022-07-24T01:50:58;12.93;;;9.50;;
10511;SDS011;5304;48.604;2.096;2022-07-24T01:53:42;12.47;;;9.30;;
10511;SDS011;5304;48.604;2.096;2022-07-24T01:56:27;10.93;;;9.00;;
10511;SDS011;5304;48.604;2.096;2022-07-24T01:59:12;13.77;;;9.53;;
10511;SDS011;5304;48.604;2.096;2022-07-24T02:01:56;12.13;;;8.87;;
10511;SDS011;5304;48.604;2.096;2022-07-24T02:04:41;13.03;;;9.63;;
10511;SDS011;5304;48.604;2.096;2022-07-24T02:07:25;10.47;;;9.27;;
10511;SDS011;5304;48.604;2.096;2022-07-24T02:10:10;11.53;;;9.63;;
10511;SDS011;5304;48.604;2.096;2022-07-24T02:12:56;11.77;;;9.40;;
10511;SDS011;5304;48.604;2.096;2022-07-24T02:15:42;12.80;;;10.17;;
10511;SDS011;5304;48.604;2.096;2022-07-24T02:18:26;10.97;;;9.50;;
10511;SDS011;5304;48.604;2.096;2022-07-24T02:21:11;12.73;;;9.40;;
10511;SDS011;5304;48.604;2.096;2022-07-24T02:23:55;11.33;;;9.60;;
10511;SDS011;5304;48.604;2.096;2022-07-24T02:26:40;15.87;;;10.33;;
10511;SDS011;5304;48.604;2.096;2022-07-24T02:29:25;13.03;;;10.27;;
10511;SDS011;5304;48.604;2.096;2022-07-24T02:32:10;11.60;;;10.00;;
10511;SDS011;5304;48.604;2.096;2022-07-24T02:34:55;12.03;;;8.93;;
10511;SDS011;5304;48.604;2.096;2022-07-24T02:37:40;12.73;;;9.80;;
10511;SDS011;5304;48.604;2.096;2022-07-24T02:40:26;11.10;;;9.47;;
10511;SDS011;5304;48.604;2.096;2022-07-24T02:43:11;12.13;;;10.10;;
10511;SDS011;5304;48.604;2.096;2022-07-24T02:45:55;11.70;;;8.87;;
10511;SDS011;5304;48.604;2.096;2022-07-24T02:48:40;13.47;;;9.50;;
10511;SDS011;5304;48.604;2.096;2022-07-24T02:51:24;11.17;;;9.97;;
10511;SDS011;5304;48.604;2.096;2022-07-24T02:54:09;15.07;;;9.87;;
10511;SDS011;5304;48.604;2.096;2022-07-24T02:56:53;11.87;;;9.10;;
10511;SDS011;5304;48.604;2.096;2022-07-24T02:59:38;15.20;;;9.87;;
10511;SDS011;5304;48.604;2.096;2022-07-24T03:02:22;11.90;;;9.30;;
10511;SDS011;5304;48.604;2.096;2022-07-24T03:05:07;11.67;;;8.63;;
10511;SDS011;5304;48.604;2.096;2022-07-24T03:07:52;10.17;;;9.17;;
10511;SDS011;5304;48.604;2.096;2022-07-24T03:10:37;12.33;;;10.17;;
10511;SDS011;5304;48.604;2.096;2022-07-24T03:13:22;10.60;;;9.37;;
10511;SDS011;5304;48.604;2.096;2022-07-24T03:16:07;13.20;;;9.53;;
10511;SDS011;5304;48.604;2.096;2022-07-24T03:18:52;11.40;;;8.93;;
10511;SDS011;5304;48.604;2.096;2022-07-24T03:21:36;12.40;;;8.87;;
10511;SDS011;5304;48.604;2.096;2022-07-24T03:24:21;10.43;;;9.33;;
10511;SDS011;5304;48.604;2.096;2022-07-24T03:27:05;12.67;;;9.97;;
10511;SDS011;5304;48.604;2.096;2022-07-24T03:29:49;12.10;;;9.90;;
10511;SDS011;5304;48.604;2.096;2022-07-24T03:32:34;13.93;;;9.30;;
10511;SDS011;5304;48.604;2.096;2022-07-24T03:35:19;10.77;;;9.43;;
10511;SDS011;5304;48.604;2.096;2022-07-24T03:38:03;11.67;;;9.50;;
10511;SDS011;5304;48.604;2.096;2022-07-24T03:40:48;14.37;;;9.80;;
10511;SDS011;5304;48.604;2.096;2022-07-24T03:43:32;13.93;;;9.90;;
10511;SDS011;5304;48.604;2.096;2022-07-24T03:46:17;11.23;;;9.83;;
10511;SDS011;5304;48.604;2.096;2022-07-24T03:49:02;11.93;;;9.97;;
10511;SDS011;5304;48.604;2.096;2022-07-24T03:51:47;15.57;;;9.73;;
10511;SDS011;5304;48.604;2.096;2022-07-24T03:54:31;10.67;;;9.57;;
10511;SDS011;5304;48.604;2.096;2022-07-24T03:57:15;12.23;;;9.63;;
10511;SDS011;5304;48.604;2.096;2022-07-24T04:00:01;12.57;;;10.07;;
10511;SDS011;5304;48.604;2.096;2022-07-24T04:02:46;12.50;;;9.93;;
10511;SDS011;5304;48.604;2.096;2022-07-24T04:05:31;13.73;;;9.97;;
10511;SDS011;5304;48.604;2.096;2022-07-24T04:08:15;12.17;;;9.60;;
10511;SDS011;5304;48.604;2.096;2022-07-24T04:10:59;14.97;;;10.63;;
10511;SDS011;5304;48.604;2.096;2022-07-24T04:13:44;12.37;;;10.30;;
10511;SDS011;5304;48.604;2.096;2022-07-24T04:16:29;14.20;;;10.43;;
10511;SDS011;5304;48.604;2.096;2022-07-24T04:19:13;10.50;;;9.40;;
10511;SDS011;5304;48.604;2.096;2022-07-24T04:21:58;11.83;;;10.43;;
10511;SDS011;5304;48.604;2.096;2022-07-24T04:24:42;11.60;;;9.33;;
10511;SDS011;5304;48.604;2.096;2022-07-24T04:27:26;10.50;;;9.27;;
10511;SDS011;5304;48.604;2.096;2022-07-24T04:30:11;12.03;;;10.00;;
10511;SDS011;5304;48.604;2.096;2022-07-24T04:32:56;11.60;;;10.07;;
10511;SDS011;5304;48.604;2.096;2022-07-24T04:35:41;12.37;;;9.40;;
10511;SDS011;5304;48.604;2.096;2022-07-24T04:38:26;11.50;;;9.87;;
10511;SDS011;5304;48.604;2.096;2022-07-24T04:41:10;12.63;;;10.23;;
10511;SDS011;5304;48.604;2.096;2022-07-24T04:43:55;13.83;;;11.07;;
10511;SDS011;5304;48.604;2.096;2022-07-24T04:46:40;12.70;;;10.40;;
10511;SDS011;5304;48.604;2.096;2022-07-24T04:49:24;12.47;;;10.23;;
10511;SDS011;5304;48.604;2.096;2022-07-24T04:52:09;13.43;;;9.70;;
10511;SDS011;5304;48.604;2.096;2022-07-24T04:54:53;13.33;;;10.67;;
10511;SDS011;5304;48.604;2.096;2022-07-24T04:57:38;11.37;;;9.63;;
10511;SDS011;5304;48.604;2.096;2022-07-24T05:00:23;12.60;;;9.67;;
10511;SDS011;5304;48.604;2.096;2022-07-24T05:03:07;12.00;;;10.03;;
10511;SDS011;5304;48.604;2.096;2022-07-24T05:05:52;13.20;;;10.07;;
10511;SDS011;5304;48.604;2.096;2022-07-24T05:08:37;12.17;;;9.50;;
10511;SDS011;5304;48.604;2.096;2022-07-24T05:11:21;11.47;;;9.90;;
10511;SDS011;5304;48.604;2.096;2022-07-24T05:14:06;11.90;;;9.60;;
10511;SDS011;5304;48.604;2.096;2022-07-24T05:16:50;12.53;;;10.10;;
10511;SDS011;5304;48.604;2.096;2022-07-24T05:19:35;12.40;;;9.97;;
10511;SDS011;5304;48.604;2.096;2022-07-24T05:22:20;15.33;;;10.63;;
10511;SDS011;5304;48.604;2.096;2022-07-24T05:25:05;13.03;;;10.37;;
10511;SDS011;5304;48.604;2.096;2022-07-24T05:27:49;12.13;;;9.30;;
10511;SDS011;5304;48.604;2.096;2022-07-24T05:30:34;13.07;;;10.37;;
10511;SDS011;5304;48.604;2.096;2022-07-24T05:33:18;12.40;;;10.27;;
10511;SDS011;5304;48.604;2.096;2022-07-24T05:36:03;11.97;;;10.13;;
10511;SDS011;5304;48.604;2.096;2022-07-24T05:38:48;14.77;;;10.73;;
10511;SDS011;5304;48.604;2.096;2022-07-24T05:41:33;13.10;;;10.80;;
10511;SDS011;5304;48.604;2.096;2022-07-24T05:44:17;11.70;;;10.03;;
10511;SDS011;5304;48.604;2.096;2022-07-24T05:47:02;16.13;;;11.03;;
10511;SDS011;5304;48.604;2.096;2022-07-24T05:49:47;11.67;;;10.43;;
10511;SDS011;5304;48.604;2.096;2022-07-24T05:52:31;12.73;;;10.50;;
10511;SDS011;5304;48.604;2.096;2022-07-24T05:55:16;13.93;;;11.70;;
10511;SDS011;5304;48.604;2.096;2022-07-24T05:58:01;15.60;;;12.13;;
10511;SDS011;5304;48.604;2.096;2022-07-24T06:00:46;13.83;;;11.73;;
10511;SDS011;5304;48.604;2.096;2022-07-24T06:03:30;16.60;;;11.97;;
10511;SDS011;5304;48.604;2.096;2022-07-24T06:06:15;17.43;;;12.30;;
10511;SDS011;5304;48.604;2.096;2022-07-24T06:08:59;17.57;;;12.07;;
10511;SDS011;5304;48.604;2.096;2022-07-24T06:11:43;14.37;;;11.50;;
10511;SDS011;5304;48.604;2.096;2022-07-24T06:14:28;15.17;;;11.80;;
10511;SDS011;5304;48.604;2.096;2022-07-24T06:17:13;16.60;;;11.90;;
10511;SDS011;5304;48.604;2.096;2022-07-24T06:19:57;14.73;;;12.30;;
10511;SDS011;5304;48.604;2.096;2022-07-24T06:22:42;13.50;;;11.60;;
10511;SDS011;5304;48.604;2.096;2022-07-24T06:25:27;14.10;;;11.83;;
10511;SDS011;5304;48.604;2.096;2022-07-24T06:28:11;15.60;;;12.73;;
10511;SDS011;5304;48.604;2.096;2022-07-24T06:30:56;22.93;;;13.03;;
10511;SDS011;5304;48.604;2.096;2022-07-24T06:33:41;18.00;;;13.27;;
10511;SDS011;5304;48.604;2.096;2022-07-24T06:36:25;16.97;;;13.43;;
10511;SDS011;5304;48.604;2.096;2022-07-24T06:39:10;19.00;;;12.77;;
10511;SDS011;5304;48.604;2.096;2022-07-24T06:41:55;20.67;;;14.37;;
10511;SDS011;5304;48.604;2.096;2022-07-24T06:44:40;14.67;;;12.73;;
10511;SDS011;5304;48.604;2.096;2022-07-24T06:47:24;19.42;;;13.95;;
10511;SDS011;5304;48.604;2.096;2022-07-24T06:50:10;16.27;;;12.60;;
10511;SDS011;5304;48.604;2.096;2022-07-24T06:52:56;17.10;;;13.43;;
10511;SDS011;5304;48.604;2.096;2022-07-24T06:55:40;18.40;;;12.02;;
10511;SDS011;5304;48.604;2.096;2022-07-24T06:58:24;15.75;;;12.27;;
10511;SDS011;5304;48.604;2.096;2022-07-24T07:01:09;17.35;;;12.60;;
10511;SDS011;5304;48.604;2.096;2022-07-24T07:03:53;16.83;;;12.60;;
10511;SDS011;5304;48.604;2.096;2022-07-24T07:06:38;16.73;;;13.15;;
10511;SDS011;5304;48.604;2.096;2022-07-24T07:09:23;14.27;;;11.82;;
10511;SDS011;5304;48.604;2.096;2022-07-24T07:12:08;17.90;;;12.00;;
10511;SDS011;5304;48.604;2.096;2022-07-24T07:14:53;15.77;;;12.55;;
10511;SDS011;5304;48.604;2.096;2022-07-24T07:17:38;12.30;;;10.57;;
10511;SDS011;5304;48.604;2.096;2022-07-24T07:20:23;18.98;;;11.57;;
10511;SDS011;5304;48.604;2.096;2022-07-24T07:23:08;14.32;;;11.23;;
10511;SDS011;5304;48.604;2.096;2022-07-24T07:25:52;14.68;;;10.75;;
10511;SDS011;5304;48.604;2.096;2022-07-24T07:28:38;13.95;;;10.38;;
10511;SDS011;5304;48.604;2.096;2022-07-24T07:31:24;16.85;;;10.75;;
10511;SDS011;5304;48.604;2.096;2022-07-24T07:34:10;14.60;;;10.70;;
10511;SDS011;5304;48.604;2.096;2022-07-24T07:36:54;14.73;;;10.63;;
10511;SDS011;5304;48.604;2.096;2022-07-24T07:39:39;14.13;;;10.05;;
10511;SDS011;5304;48.604;2.096;2022-07-24T07:42:23;11.82;;;9.50;;
10511;SDS011;5304;48.604;2.096;2022-07-24T07:45:08;13.68;;;9.77;;
10511;SDS011;5304;48.604;2.096;2022-07-24T07:47:53;14.55;;;10.20;;
10511;SDS011;5304;48.604;2.096;2022-07-24T07:50:38;16.88;;;9.38;;
10511;SDS011;5304;48.604;2.096;2022-07-24T07:53:23;14.30;;;9.63;;
10511;SDS011;5304;48.604;2.096;2022-07-24T07:56:07;9.95;;;8.15;;
10511;SDS011;5304;48.604;2.096;2022-07-24T07:58:52;10.48;;;8.75;;
10511;SDS011;5304;48.604;2.096;2022-07-24T08:01:37;9.40;;;8.40;;
10511;SDS011;5304;48.604;2.096;2022-07-24T08:04:22;10.35;;;8.15;;
10511;SDS011;5304;48.604;2.096;2022-07-24T08:07:06;9.43;;;8.40;;
10511;SDS011;5304;48.604;2.096;2022-07-24T08:09:51;9.82;;;8.38;;
10511;SDS011;5304;48.604;2.096;2022-07-24T08:12:35;9.18;;;7.85;;
10511;SDS011;5304;48.604;2.096;2022-07-24T08:15:20;10.68;;;7.65;;
10511;SDS011;5304;48.604;2.096;2022-07-24T08:18:04;9.48;;;7.70;;
10511;SDS011;5304;48.604;2.096;2022-07-24T08:20:48;9.57;;;8.15;;
10511;SDS011;5304;48.604;2.096;2022-07-24T08:23:33;8.93;;;8.02;;
10511;SDS011;5304;48.604;2.096;2022-07-24T08:26:17;9.90;;;8.10;;
10511;SDS011;5304;48.604;2.096;2022-07-24T08:29:02;8.30;;;6.35;;
10511;SDS011;5304;48.604;2.096;2022-07-24T08:31:47;7.15;;;6.47;;
10511;SDS011;5304;48.604;2.096;2022-07-24T08:34:31;6.72;;;5.85;;
10511;SDS011;5304;48.604;2.096;2022-07-24T08:37:18;7.07;;;6.28;;
10511;SDS011;5304;48.604;2.096;2022-07-24T08:40:04;7.32;;;6.30;;
10511;SDS011;5304;48.604;2.096;2022-07-24T08:42:50;9.32;;;6.60;;
10511;SDS011;5304;48.604;2.096;2022-07-24T08:45:36;7.82;;;6.28;;
10511;SDS011;5304;48.604;2.096;2022-07-24T08:48:22;7.07;;;6.47;;
10511;SDS011;5304;48.604;2.096;2022-07-24T08:51:08;6.90;;;6.20;;
10511;SDS011;5304;48.604;2.096;2022-07-24T08:53:53;10.02;;;5.75;;
10511;SDS011;5304;48.604;2.096;2022-07-24T08:56:39;6.28;;;5.68;;
10511;SDS011;5304;48.604;2.096;2022-07-24T08:59:25;5.90;;;5.30;;
10511;SDS011;5304;48.604;2.096;2022-07-24T09:02:10;8.07;;;6.30;;
10511;SDS011;5304;48.604;2.096;2022-07-24T09:04:58;6.22;;;5.63;;
10511;SDS011;5304;48.604;2.096;2022-07-24T09:07:44;7.25;;;6.13;;
10511;SDS011;5304;48.604;2.096;2022-07-24T09:10:28;5.95;;;5.45;;
10511;SDS011;5304;48.604;2.096;2022-07-24T09:13:14;6.55;;;5.72;;
10511;SDS011;5304;48.604;2.096;2022-07-24T09:16:00;6.88;;;5.35;;
10511;SDS011;5304;48.604;2.096;2022-07-24T09:18:44;6.15;;;5.60;;
10511;SDS011;5304;48.604;2.096;2022-07-24T09:21:31;5.95;;;5.30;;
10511;SDS011;5304;48.604;2.096;2022-07-24T09:24:18;6.25;;;5.05;;
10511;SDS011;5304;48.604;2.096;2022-07-24T09:27:04;6.32;;;5.57;;
10511;SDS011;5304;48.604;2.096;2022-07-24T09:29:58;5.93;;;5.30;;
10511;SDS011;5304;48.604;2.096;2022-07-24T09:32:43;5.60;;;5.10;;
10511;SDS011;5304;48.604;2.096;2022-07-24T09:35:43;6.70;;;5.10;;
10511;SDS011;5304;48.604;2.096;2022-07-24T09:38:30;5.57;;;4.78;;
10511;SDS011;5304;48.604;2.096;2022-07-24T09:41:33;5.95;;;5.25;;
10511;SDS011;5304;48.604;2.096;2022-07-24T09:44:33;5.35;;;4.80;;
10511;SDS011;5304;48.604;2.096;2022-07-24T09:47:18;5.55;;;5.03;;
10511;SDS011;5304;48.604;2.096;2022-07-24T09:50:11;5.30;;;4.82;;
10511;SDS011;5304;48.604;2.096;2022-07-24T09:52:57;6.05;;;4.63;;
10511;SDS011;5304;48.604;2.096;2022-07-24T09:55:42;9.05;;;4.85;;
10511;SDS011;5304;48.604;2.096;2022-07-24T09:58:28;5.57;;;4.97;;
10511;SDS011;5304;48.604;2.096;2022-07-24T10:01:15;10.38;;;5.05;;
10511;SDS011;5304;48.604;2.096;2022-07-24T10:04:01;5.32;;;4.45;;
10511;SDS011;5304;48.604;2.096;2022-07-24T10:06:49;5.70;;;4.53;;
10511;SDS011;5304;48.604;2.096;2022-07-24T10:09:40;5.03;;;4.53;;
10511;SDS011;5304;48.604;2.096;2022-07-24T10:12:28;5.32;;;4.63;;
10511;SDS011;5304;48.604;2.096;2022-07-24T10:15:14;5.70;;;4.55;;
10511;SDS011;5304;48.604;2.096;2022-07-24T10:18:04;5.07;;;4.57;;
10511;SDS011;5304;48.604;2.096;2022-07-24T10:21:03;5.38;;;4.80;;
10511;SDS011;5304;48.604;2.096;2022-07-24T10:26:51;4.97;;;4.50;;
10511;SDS011;5304;48.604;2.096;2022-07-24T10:29:37;5.28;;;4.47;;
10511;SDS011;5304;48.604;2.096;2022-07-24T10:32:22;5.32;;;4.82;;
10511;SDS011;5304;48.604;2.096;2022-07-24T10:35:11;6.72;;;4.82;;
10511;SDS011;5304;48.604;2.096;2022-07-24T10:38:17;5.07;;;4.57;;
10511;SDS011;5304;48.604;2.096;2022-07-24T10:41:09;4.70;;;4.20;;
10511;SDS011;5304;48.604;2.096;2022-07-24T10:44:25;6.03;;;4.40;;
10511;SDS011;5304;48.604;2.096;2022-07-24T10:47:09;4.80;;;4.40;;
10511;SDS011;5304;48.604;2.096;2022-07-24T10:50:00;5.05;;;4.55;;
10511;SDS011;5304;48.604;2.096;2022-07-24T10:52:46;5.10;;;4.55;;
10511;SDS011;5304;48.604;2.096;2022-07-24T10:55:31;5.40;;;4.90;;
10511;SDS011;5304;48.604;2.096;2022-07-24T10:58:18;5.78;;;4.32;;
10511;SDS011;5304;48.604;2.096;2022-07-24T11:01:26;5.90;;;4.60;;
10511;SDS011;5304;48.604;2.096;2022-07-24T11:10:00;6.60;;;6.00;;
10511;SDS011;5304;48.604;2.096;2022-07-24T11:12:51;5.18;;;4.68;;
10511;SDS011;5304;48.604;2.096;2022-07-24T11:16:11;5.05;;;4.60;;
10511;SDS011;5304;48.604;2.096;2022-07-24T11:21:44;5.45;;;4.55;;
10511;SDS011;5304;48.604;2.096;2022-07-24T11:24:33;4.82;;;4.43;;
10511;SDS011;5304;48.604;2.096;2022-07-24T11:27:17;4.50;;;4.07;;
10511;SDS011;5304;48.604;2.096;2022-07-24T11:30:05;7.43;;;4.50;;
10511;SDS011;5304;48.604;2.096;2022-07-24T11:32:50;5.30;;;4.90;;
10511;SDS011;5304;48.604;2.096;2022-07-24T11:35:35;5.97;;;4.60;;
10511;SDS011;5304;48.604;2.096;2022-07-24T11:38:27;4.97;;;4.30;;
10511;SDS011;5304;48.604;2.096;2022-07-24T11:41:13;4.22;;;3.88;;
10511;SDS011;5304;48.604;2.096;2022-07-24T11:43:58;4.70;;;4.30;;
10511;SDS011;5304;48.604;2.096;2022-07-24T11:46:43;5.35;;;4.47;;
10511;SDS011;5304;48.604;2.096;2022-07-24T11:49:27;5.57;;;5.07;;
10511;SDS011;5304;48.604;2.096;2022-07-24T11:55:05;8.45;;;5.18;;
10511;SDS011;5304;48.604;2.096;2022-07-24T11:57:54;4.38;;;3.88;;
10511;SDS011;5304;48.604;2.096;2022-07-24T12:00:40;5.55;;;4.97;;
10511;SDS011;5304;48.604;2.096;2022-07-24T12:03:25;4.70;;;4.03;;
10511;SDS011;5304;48.604;2.096;2022-07-24T12:06:12;5.00;;;4.50;;
10511;SDS011;5304;48.604;2.096;2022-07-24T12:09:07;5.18;;;4.63;;
10511;SDS011;5304;48.604;2.096;2022-07-24T12:11:52;5.78;;;4.85;;
10511;SDS011;5304;48.604;2.096;2022-07-24T12:14:37;4.72;;;4.32;;
10511;SDS011;5304;48.604;2.096;2022-07-24T12:17:23;5.38;;;4.80;;
10511;SDS011;5304;48.604;2.096;2022-07-24T12:20:07;5.28;;;4.78;;
10511;SDS011;5304;48.604;2.096;2022-07-24T12:22:53;5.32;;;4.57;;
10511;SDS011;5304;48.604;2.096;2022-07-24T12:25:39;5.03;;;4.63;;
10511;SDS011;5304;48.604;2.096;2022-07-24T12:28:24;5.03;;;4.50;;
10511;SDS011;5304;48.604;2.096;2022-07-24T12:31:09;4.53;;;4.13;;
10511;SDS011;5304;48.604;2.096;2022-07-24T12:33:53;4.97;;;4.53;;
10511;SDS011;5304;48.604;2.096;2022-07-24T12:36:39;5.43;;;4.40;;
10511;SDS011;5304;48.604;2.096;2022-07-24T12:39:24;4.70;;;4.30;;
10511;SDS011;5304;48.604;2.096;2022-07-24T12:42:09;4.75;;;4.35;;
10511;SDS011;5304;48.604;2.096;2022-07-24T12:44:53;6.43;;;4.65;;
10511;SDS011;5304;48.604;2.096;2022-07-24T12:53:44;4.88;;;4.40;;
10511;SDS011;5304;48.604;2.096;2022-07-24T12:56:32;5.03;;;4.60;;
10511;SDS011;5304;48.604;2.096;2022-07-24T12:59:21;4.97;;;4.55;;
10511;SDS011;5304;48.604;2.096;2022-07-24T13:02:15;5.20;;;4.70;;
10511;SDS011;5304;48.604;2.096;2022-07-24T13:05:09;5.00;;;4.60;;
10511;SDS011;5304;48.604;2.096;2022-07-24T13:07:53;5.25;;;4.82;;
10511;SDS011;5304;48.604;2.096;2022-07-24T13:10:38;5.32;;;4.82;;
10511;SDS011;5304;48.604;2.096;2022-07-24T13:13:23;4.57;;;4.18;;
10511;SDS011;5304;48.604;2.096;2022-07-24T13:16:08;5.00;;;4.45;;
10511;SDS011;5304;48.604;2.096;2022-07-24T13:18:52;6.25;;;4.93;;
10511;SDS011;5304;48.604;2.096;2022-07-24T13:21:37;5.22;;;4.72;;
10511;SDS011;5304;48.604;2.096;2022-07-24T13:24:22;5.22;;;4.78;;
10511;SDS011;5304;48.604;2.096;2022-07-24T13:27:08;5.40;;;4.90;;
10511;SDS011;5304;48.604;2.096;2022-07-24T13:29:53;6.40;;;4.90;;
10511;SDS011;5304;48.604;2.096;2022-07-24T13:32:38;4.55;;;4.15;;
10511;SDS011;5304;48.604;2.096;2022-07-24T13:35:22;5.13;;;4.70;;
10511;SDS011;5304;48.604;2.096;2022-07-24T13:38:07;4.88;;;4.47;;
10511;SDS011;5304;48.604;2.096;2022-07-24T13:40:51;4.95;;;4.55;;
10511;SDS011;5304;48.604;2.096;2022-07-24T13:43:36;5.15;;;4.75;;
10511;SDS011;5304;48.604;2.096;2022-07-24T13:46:21;7.95;;;5.30;;
10511;SDS011;5304;48.604;2.096;2022-07-24T13:49:05;5.35;;;4.95;;
10511;SDS011;5304;48.604;2.096;2022-07-24T13:51:50;5.70;;;5.10;;
10511;SDS011;5304;48.604;2.096;2022-07-24T13:54:35;6.05;;;5.45;;
10511;SDS011;5304;48.604;2.096;2022-07-24T13:57:20;5.03;;;4.63;;
10511;SDS011;5304;48.604;2.096;2022-07-24T14:00:05;4.80;;;4.40;;
10511;SDS011;5304;48.604;2.096;2022-07-24T14:02:50;5.65;;;5.13;;
10511;SDS011;5304;48.604;2.096;2022-07-24T14:05:38;6.15;;;4.85;;
10511;SDS011;5304;48.604;2.096;2022-07-24T14:08:24;5.20;;;4.70;;
10511;SDS011;5304;48.604;2.096;2022-07-24T14:11:09;5.60;;;5.10;;
10511;SDS011;5304;48.604;2.096;2022-07-24T14:13:54;6.10;;;4.82;;
10511;SDS011;5304;48.604;2.096;2022-07-24T14:16:38;5.80;;;5.00;;
10511;SDS011;5304;48.604;2.096;2022-07-24T14:19:23;5.25;;;4.85;;
10511;SDS011;5304;48.604;2.096;2022-07-24T14:22:08;4.30;;;3.97;;
10511;SDS011;5304;48.604;2.096;2022-07-24T14:24:52;5.50;;;5.00;;
10511;SDS011;5304;48.604;2.096;2022-07-24T14:27:37;5.60;;;5.10;;
10511;SDS011;5304;48.604;2.096;2022-07-24T14:30:22;5.25;;;4.68;;
10511;SDS011;5304;48.604;2.096;2022-07-24T14:33:07;4.97;;;4.57;;
10511;SDS011;5304;48.604;2.096;2022-07-24T14:35:51;7.47;;;5.43;;
10511;SDS011;5304;48.604;2.096;2022-07-24T14:38:36;5.18;;;4.65;;
10511;SDS011;5304;48.604;2.096;2022-07-24T14:41:20;5.32;;;4.82;;
10511;SDS011;5304;48.604;2.096;2022-07-24T14:44:05;5.00;;;4.55;;
10511;SDS011;5304;48.604;2.096;2022-07-24T14:46:49;5.63;;;5.15;;
10511;SDS011;5304;48.604;2.096;2022-07-24T14:49:33;5.38;;;4.95;;
10511;SDS011;5304;48.604;2.096;2022-07-24T14:52:18;5.65;;;5.03;;
10511;SDS011;5304;48.604;2.096;2022-07-24T14:55:03;5.60;;;5.00;;
10511;SDS011;5304;48.604;2.096;2022-07-24T14:57:51;6.05;;;5.45;;
10511;SDS011;5304;48.604;2.096;2022-07-24T15:00:36;5.15;;;4.75;;
10511;SDS011;5304;48.604;2.096;2022-07-24T15:03:20;5.15;;;4.75;;
10511;SDS011;5304;48.604;2.096;2022-07-24T15:06:05;5.25;;;4.75;;
10511;SDS011;5304;48.604;2.096;2022-07-24T15:08:50;5.22;;;4.82;;
10511;SDS011;5304;48.604;2.096;2022-07-24T15:11:34;5.72;;;4.80;;
10511;SDS011;5304;48.604;2.096;2022-07-24T15:14:21;5.28;;;4.80;;
10511;SDS011;5304;48.604;2.096;2022-07-24T15:17:06;5.75;;;5.20;;
10511;SDS011;5304;48.604;2.096;2022-07-24T15:19:50;6.15;;;5.60;;
10511;SDS011;5304;48.604;2.096;2022-07-24T15:22:35;5.72;;;5.20;;
10511;SDS011;5304;48.604;2.096;2022-07-24T15:25:20;5.32;;;4.85;;
10511;SDS011;5304;48.604;2.096;2022-07-24T15:28:04;5.32;;;4.82;;
10511;SDS011;5304;48.604;2.096;2022-07-24T15:30:49;6.15;;;5.65;;
10511;SDS011;5304;48.604;2.096;2022-07-24T15:33:34;5.13;;;4.72;;
10511;SDS011;5304;48.604;2.096;2022-07-24T15:36:18;6.10;;;5.60;;
10511;SDS011;5304;48.604;2.096;2022-07-24T15:39:03;6.57;;;5.93;;
10511;SDS011;5304;48.604;2.096;2022-07-24T15:41:48;5.88;;;5.28;;
10511;SDS011;5304;48.604;2.096;2022-07-24T15:44:33;5.93;;;5.43;;
10511;SDS011;5304;48.604;2.096;2022-07-24T15:47:18;4.90;;;4.50;;
10511;SDS011;5304;48.604;2.096;2022-07-24T15:50:03;4.97;;;4.57;;
10511;SDS011;5304;48.604;2.096;2022-07-24T15:52:48;5.60;;;5.10;;
10511;SDS011;5304;48.604;2.096;2022-07-24T15:55:33;5.38;;;4.90;;
10511;SDS011;5304;48.604;2.096;2022-07-24T15:58:17;5.43;;;4.97;;
10511;SDS011;5304;48.604;2.096;2022-07-24T16:01:02;8.82;;;4.80;;
10511;SDS011;5304;48.604;2.096;2022-07-24T16:03:46;6.45;;;4.90;;
10511;SDS011;5304;48.604;2.096;2022-07-24T16:06:30;5.70;;;5.10;;
10511;SDS011;5304;48.604;2.096;2022-07-24T16:09:15;5.45;;;4.95;;
10511;SDS011;5304;48.604;2.096;2022-07-24T16:11:59;5.75;;;5.25;;
10511;SDS011;5304;48.604;2.096;2022-07-24T16:14:44;5.95;;;5.38;;
10511;SDS011;5304;48.604;2.096;2022-07-24T16:17:29;5.53;;;5.03;;
10511;SDS011;5304;48.604;2.096;2022-07-24T16:20:13;5.40;;;4.97;;
10511;SDS011;5304;48.604;2.096;2022-07-24T16:22:58;5.43;;;4.32;;
10511;SDS011;5304;48.604;2.096;2022-07-24T16:25:43;4.88;;;4.47;;
10511;SDS011;5304;48.604;2.096;2022-07-24T16:28:28;4.80;;;4.15;;
10511;SDS011;5304;48.604;2.096;2022-07-24T16:31:12;4.78;;;4.35;;
10511;SDS011;5304;48.604;2.096;2022-07-24T16:33:57;4.43;;;4.03;;
10511;SDS011;5304;48.604;2.096;2022-07-24T16:36:41;4.70;;;4.30;;
10511;SDS011;5304;48.604;2.096;2022-07-24T16:39:26;6.63;;;4.20;;
10511;SDS011;5304;48.604;2.096;2022-07-24T16:42:11;4.47;;;4.07;;
10511;SDS011;5304;48.604;2.096;2022-07-24T16:44:56;4.82;;;4.43;;
10511;SDS011;5304;48.604;2.096;2022-07-24T16:47:40;4.28;;;3.88;;
10511;SDS011;5304;48.604;2.096;2022-07-24T16:50:25;4.10;;;3.70;;
10511;SDS011;5304;48.604;2.096;2022-07-24T16:53:09;5.57;;;4.28;;
10511;SDS011;5304;48.604;2.096;2022-07-24T16:55:54;4.55;;;4.15;;
10511;SDS011;5304;48.604;2.096;2022-07-24T16:58:39;4.30;;;3.90;;
10511;SDS011;5304;48.604;2.096;2022-07-24T17:01:26;4.43;;;4.03;;
10511;SDS011;5304;48.604;2.096;2022-07-24T17:04:11;4.60;;;4.03;;